Athens Township, Pennsylvania
Current Conditions -  °F | °C
As of 4:53 AM on Tuesday 21 Oct 2014 (Local Time) from KBGM Reporting Station
Overcast Overcast  
Wind Chill: 44°   Ceiling: 6000
Heat Index: 47°   Visibility: 10mi
Dew Point: 42°   Wind: 7mph
Humidity: 83%   Direction: 150°SSE
Pressure: 29.83"   Gusts: NA
Location:  41.9771°N, 76.4144°W
Report Text: KBGM 210853Z AUTO 15006KT 10SM BKN060 OVC095 08/06 A2983 RMK AO2 SLP105 60000 T00830056 56008
Loading
Personal Weather Stations






























Interactive Weather Map
Tropical Storm Tracking
New forecast layout! Learn more

10-Day Weather Forecast

Advertisements
Track Severe Weather on mobile